createdAt,value
2023-11-15T10:40:48.014Z,98309.06
2023-11-15T10:43:18.594Z,98297.72
2023-11-15T10:45:47.266Z,98309.19
2023-11-15T10:48:22.153Z,98321.06
2023-11-15T10:50:58.285Z,98329.50
2023-11-15T10:53:28.271Z,98323.41
2023-11-15T10:55:58.798Z,98324.75
2023-11-15T10:58:27.736Z,98335.44
2023-11-15T11:00:56.602Z,98316.00
2023-11-15T11:03:26.538Z,98328.19
2023-11-15T11:06:05.146Z,98317.03
2023-11-15T11:08:55.607Z,98323.19
2023-11-15T11:11:34.968Z,98326.22
2023-11-15T11:14:22.357Z,98333.13
2023-11-15T11:16:50.741Z,98321.41
2023-11-15T11:19:28.407Z,98325.00
2023-11-15T11:22:18.945Z,98326.63
2023-11-15T11:25:08.471Z,98338.72
2023-11-15T11:27:38.147Z,98340.72
2023-11-15T11:30:14.810Z,98345.88
2023-11-15T11:32:45.894Z,98348.88
2023-11-15T11:35:21.814Z,98341.38
2023-11-15T11:37:57.079Z,98333.13
2023-11-15T11:40:29.808Z,98346.22
2023-11-15T11:43:12.275Z,98362.31
2023-11-15T11:45:42.309Z,98335.22
2023-11-15T11:48:37.986Z,98333.25
2023-11-15T11:51:07.321Z,98350.25
2023-11-15T11:53:48.197Z,98351.59
2023-11-15T11:56:15.946Z,98349.78
2023-11-15T11:58:44.110Z,98351.44
2023-11-15T12:01:12.906Z,98359.31
2023-11-15T12:03:49.093Z,98373.13
2023-11-15T12:06:19.315Z,98372.56
2023-11-15T12:08:50.518Z,98366.25
2023-11-15T12:11:21.428Z,98375.34
2023-11-15T12:13:51.960Z,98370.78
2023-11-15T12:16:26.880Z,98381.44
2023-11-15T12:19:02.788Z,98363.38
2023-11-15T12:21:36.838Z,98367.78
2023-11-15T12:24:11.398Z,98360.31
2023-11-15T12:26:47.842Z,98365.81
2023-11-15T12:29:27.907Z,98351.75
2023-11-15T12:31:57.912Z,98363.34
2023-11-15T12:34:26.193Z,98366.81
2023-11-15T12:36:54.125Z,98380.00
2023-11-15T12:39:23.466Z,98370.03
2023-11-15T12:41:54.518Z,98381.16
2023-11-15T12:44:22.702Z,98389.56
2023-11-15T12:46:52.420Z,98390.53
2023-11-15T12:49:27.339Z,98399.41
2023-11-15T12:51:55.646Z,98405.00
2023-11-15T12:54:23.222Z,98407.22
2023-11-15T12:57:14.140Z,98410.16
2023-11-15T12:59:43.473Z,98418.56
2023-11-15T13:02:18.619Z,98408.44
2023-11-15T13:04:51.865Z,98411.09
2023-11-15T13:07:19.712Z,98402.41
2023-11-15T13:09:47.784Z,98407.50
2023-11-15T13:12:25.914Z,98397.47
2023-11-15T13:14:54.760Z,98417.63
2023-11-15T13:17:22.399Z,98407.59
2023-11-15T13:19:50.119Z,98408.34
2023-11-15T13:22:17.781Z,98407.28
2023-11-15T13:24:49.975Z,98426.22
2023-11-15T13:27:19.193Z,98422.78
2023-11-15T13:29:47.117Z,98414.81
2023-11-15T13:32:15.760Z,98433.25
2023-11-15T13:34:45.911Z,98428.38
2023-11-15T13:37:16.328Z,98442.22
2023-11-15T13:39:43.824Z,98440.00
2023-11-15T13:42:11.865Z,98446.19
2023-11-15T13:44:39.788Z,98466.28
2023-11-15T13:47:08.193Z,98466.00
2023-11-15T13:49:35.780Z,98476.53
2023-11-15T13:52:03.373Z,98478.28
2023-11-15T13:54:31.780Z,98494.69
2023-11-15T13:56:59.545Z,98493.06
2023-11-15T13:59:29.541Z,98485.47
2023-11-15T14:01:57.153Z,98496.47
2023-11-15T14:04:24.703Z,98497.25
2023-11-15T14:06:53.718Z,98504.72
2023-11-15T14:09:25.920Z,98513.38
2023-11-15T14:11:53.580Z,98512.31
2023-11-15T14:14:21.110Z,98518.16
2023-11-15T14:16:48.661Z,98516.88
2023-11-15T14:19:16.820Z,98531.34
2023-11-15T14:21:45.577Z,98534.75
2023-11-15T14:24:13.288Z,98534.44
2023-11-15T14:26:41.127Z,98539.09
2023-11-15T14:29:09.839Z,98539.88
2023-11-15T14:31:39.080Z,98531.25
2023-11-15T14:34:08.565Z,98539.50
2023-11-15T14:36:38.578Z,98543.81
2023-11-15T14:39:08.766Z,98541.56
2023-11-15T14:41:36.461Z,98546.19
2023-11-15T14:44:05.176Z,98549.50
2023-11-15T14:46:34.126Z,98554.22
2023-11-15T14:49:01.816Z,98574.69
2023-11-15T14:51:29.545Z,98566.66
2023-11-15T14:53:57.303Z,98579.75
2023-11-15T14:56:25.253Z,98579.88
2023-11-15T14:58:54.546Z,98588.09
2023-11-15T15:01:24.862Z,98593.47
2023-11-15T15:03:53.532Z,98587.28
2023-11-15T15:06:21.395Z,98592.19
2023-11-15T15:08:49.011Z,98593.72
2023-11-15T15:11:16.594Z,98596.59
2023-11-15T15:13:44.116Z,98602.41
2023-11-15T15:16:12.999Z,98594.44
2023-11-15T15:18:41.793Z,98602.47
2023-11-15T15:21:11.036Z,98607.69
2023-11-15T15:23:38.760Z,98623.94
2023-11-15T15:26:06.546Z,98616.38
2023-11-15T15:28:34.487Z,98605.06
2023-11-15T15:31:02.221Z,98617.91
2023-11-15T15:33:30.134Z,98620.56
2023-11-15T15:35:58.671Z,98620.63
2023-11-15T15:38:26.958Z,98625.16
2023-11-15T15:40:55.474Z,98624.44
2023-11-15T15:43:23.072Z,98628.84
2023-11-15T15:45:50.708Z,98618.81
2023-11-15T15:48:19.095Z,98630.16
2023-11-15T15:50:48.689Z,98640.94
2023-11-15T15:53:16.213Z,98634.19
2023-11-15T15:55:44.382Z,98629.97
2023-11-15T15:58:12.081Z,98636.44
2023-11-15T16:00:39.712Z,98644.00
2023-11-15T16:03:07.472Z,98638.28
2023-11-15T16:05:35.081Z,98634.38
2023-11-15T16:08:02.727Z,98642.59
2023-11-15T16:10:30.327Z,98649.25
2023-11-15T16:12:58.686Z,98661.00
2023-11-15T16:15:26.713Z,98664.63
2023-11-15T16:17:55.500Z,98663.09
2023-11-15T16:20:23.188Z,98669.34
2023-11-15T16:22:52.710Z,98673.31
2023-11-15T16:25:20.374Z,98671.03
2023-11-15T16:27:47.953Z,98679.66
2023-11-15T16:30:15.751Z,98682.16
2023-11-15T16:32:44.069Z,98692.53
2023-11-15T16:35:11.885Z,98697.44
2023-11-15T16:37:42.869Z,98699.06
2023-11-15T16:40:11.529Z,98704.72
2023-11-15T16:42:40.228Z,98705.19
2023-11-15T16:45:09.677Z,98709.44
2023-11-15T16:47:40.142Z,98718.66
2023-11-15T16:50:09.084Z,98722.72
2023-11-15T16:52:36.882Z,98720.28
2023-11-15T16:55:06.671Z,98719.28
2023-11-15T16:57:34.750Z,98726.19
2023-11-15T17:00:02.617Z,98730.03
2023-11-15T17:02:31.055Z,98727.63
2023-11-15T17:04:58.640Z,98730.91
2023-11-15T17:07:26.168Z,98737.00
2023-11-15T17:09:53.831Z,98718.66
2023-11-15T17:12:24.438Z,98743.34
2023-11-15T17:14:52.578Z,98742.31
2023-11-15T17:17:20.172Z,98745.56
2023-11-15T17:19:47.827Z,98736.19
2023-11-15T17:22:15.521Z,98741.50
2023-11-15T17:24:44.203Z,98755.50
2023-11-15T17:27:11.959Z,98755.31
2023-11-15T17:29:40.680Z,98750.66
2023-11-15T17:32:08.474Z,98766.75
2023-11-15T17:34:37.199Z,98766.97
2023-11-15T17:37:04.759Z,98775.91
2023-11-15T17:39:32.464Z,98779.63
2023-11-15T17:42:00.089Z,98783.94
2023-11-15T17:44:27.946Z,98788.69
2023-11-15T17:46:55.818Z,98783.88
2023-11-15T17:49:23.479Z,98785.34
2023-11-15T17:51:51.004Z,98797.81
2023-11-15T17:54:19.942Z,98799.41
2023-11-15T17:56:47.695Z,98795.13
2023-11-15T17:59:15.381Z,98792.88
2023-11-15T18:01:43.962Z,98794.28
2023-11-15T18:04:15.063Z,98784.53
2023-11-15T18:06:43.241Z,98790.72
2023-11-15T18:09:11.532Z,98784.75
2023-11-15T18:11:39.560Z,98786.31
2023-11-15T18:14:07.409Z,98793.72
2023-11-15T18:16:35.326Z,98788.69
2023-11-15T18:19:08.768Z,98786.84
2023-11-15T18:21:36.991Z,98787.94
2023-11-15T18:24:04.806Z,98795.09
2023-11-15T18:26:33.762Z,98808.69
2023-11-15T18:29:01.655Z,98814.41
2023-11-15T18:31:29.622Z,98809.88
2023-11-15T18:33:59.133Z,98802.56
2023-11-15T18:36:27.486Z,98810.03
2023-11-15T18:38:55.737Z,98801.00
2023-11-15T18:41:23.508Z,98809.91
2023-11-15T18:43:51.172Z,98816.19
2023-11-15T18:46:18.885Z,98817.91
2023-11-15T18:48:48.753Z,98805.72
2023-11-15T18:51:23.125Z,98815.38
2023-11-15T18:53:51.293Z,98819.69
2023-11-15T18:56:19.285Z,98818.59
2023-11-15T18:58:47.002Z,98823.75
2023-11-15T19:01:14.785Z,98816.66
2023-11-15T19:03:44.289Z,98820.25
2023-11-15T19:06:11.999Z,98831.09
2023-11-15T19:08:42.362Z,98829.75
2023-11-15T19:11:10.088Z,98835.25
2023-11-15T19:13:38.381Z,98825.72
2023-11-15T19:16:08.705Z,98833.06
2023-11-15T19:18:36.390Z,98834.84
2023-11-15T19:21:04.987Z,98849.09
2023-11-15T19:23:33.075Z,98842.19
2023-11-15T19:26:00.781Z,98844.44
2023-11-15T19:28:28.347Z,98845.75
2023-11-15T19:30:55.856Z,98860.38
2023-11-15T19:33:23.796Z,98867.91
2023-11-15T19:35:51.733Z,98867.41
2023-11-15T19:38:20.202Z,98869.03
2023-11-15T19:40:48.250Z,98873.78
2023-11-15T19:43:16.096Z,98871.66
2023-11-15T19:45:43.701Z,98869.00
2023-11-15T19:48:12.285Z,98871.00
2023-11-15T19:50:41.162Z,98873.78
2023-11-15T19:53:08.969Z,98876.97
2023-11-15T19:55:36.935Z,98879.19
2023-11-15T19:58:05.932Z,98883.59
2023-11-15T20:00:36.864Z,98887.13
2023-11-15T20:03:08.723Z,98881.63
2023-11-15T20:05:39.952Z,98882.84
2023-11-15T20:08:08.947Z,98881.03
2023-11-15T20:10:37.346Z,98888.38
2023-11-15T20:13:06.530Z,98882.09
2023-11-15T20:15:35.028Z,98878.63
2023-11-15T20:18:03.547Z,98880.84
2023-11-15T20:20:32.562Z,98874.13
2023-11-15T20:23:01.581Z,98878.28
2023-11-15T20:25:29.734Z,98880.91
2023-11-15T20:27:57.421Z,98868.66
2023-11-15T20:30:26.913Z,98868.63
2023-11-15T20:32:56.534Z,98866.56
2023-11-15T20:35:24.767Z,98866.22
2023-11-15T20:37:52.825Z,98868.16
2023-11-15T20:40:23.301Z,98864.63
2023-11-15T20:42:51.171Z,98854.75
2023-11-15T20:45:18.750Z,98870.53
2023-11-15T20:47:46.585Z,98882.25
2023-11-15T20:50:14.495Z,98881.03
2023-11-15T20:52:42.378Z,98878.59
2023-11-15T20:55:13.778Z,98895.50
2023-11-15T20:57:41.384Z,98898.38
2023-11-15T21:00:14.375Z,98899.72
2023-11-15T21:02:42.151Z,98898.69
2023-11-15T21:05:11.948Z,98912.06
2023-11-15T21:07:40.627Z,98916.63
2023-11-15T21:10:08.993Z,98920.59
2023-11-15T21:12:37.106Z,98918.91
2023-11-15T21:15:06.227Z,98919.66
2023-11-15T21:17:34.120Z,98923.59
2023-11-15T21:20:11.190Z,98920.22
2023-11-15T21:22:45.930Z,98921.00
2023-11-15T21:25:14.011Z,98928.88
2023-11-15T21:27:43.187Z,98919.41
2023-11-15T21:30:13.249Z,98921.94
2023-11-15T21:32:42.379Z,98913.53
2023-11-15T21:35:11.893Z,98917.69
2023-11-15T21:37:43.522Z,98912.84
2023-11-15T21:40:15.283Z,98917.25
2023-11-15T21:42:45.707Z,98923.00
2023-11-15T21:45:14.846Z,98920.38
2023-11-15T21:47:43.940Z,98919.88
2023-11-15T21:50:16.056Z,98916.03
2023-11-15T21:52:44.568Z,98927.34
2023-11-15T21:55:12.291Z,98924.69
2023-11-15T21:57:39.937Z,98929.84
2023-11-15T22:00:10.153Z,98924.41
2023-11-15T22:02:37.801Z,98928.47
2023-11-15T22:05:06.253Z,98931.63
2023-11-15T22:07:33.869Z,98934.09
2023-11-15T22:10:01.442Z,98926.59
2023-11-15T22:12:29.005Z,98940.97
2023-11-15T22:14:56.705Z,98932.50
2023-11-15T22:17:24.240Z,98938.63
2023-11-15T22:19:52.242Z,98943.66
2023-11-15T22:22:19.754Z,98950.25
2023-11-15T22:24:47.777Z,98950.97
2023-11-15T22:27:15.478Z,98948.38
2023-11-15T22:29:43.145Z,98952.22
2023-11-15T22:32:10.664Z,98958.53
2023-11-15T22:34:38.276Z,98964.75
2023-11-15T22:37:08.027Z,98965.63
2023-11-15T22:39:35.679Z,98972.97
2023-11-15T22:42:04.478Z,98976.88
2023-11-15T22:44:31.977Z,98980.44
2023-11-15T22:46:59.656Z,98980.91
2023-11-15T22:49:27.208Z,98983.47
2023-11-15T22:51:54.855Z,98980.28
2023-11-15T22:54:22.421Z,98981.06
2023-11-15T22:56:50.070Z,98979.69
2023-11-15T22:59:17.657Z,98973.88
2023-11-15T23:01:45.775Z,98975.56
2023-11-15T23:04:16.661Z,98979.97
2023-11-15T23:06:48.485Z,98978.53
2023-11-15T23:09:16.647Z,98982.53
2023-11-15T23:11:44.253Z,98981.66
2023-11-15T23:14:11.820Z,98985.56
2023-11-15T23:16:41.491Z,98991.06
2023-11-15T23:19:09.480Z,98986.91
2023-11-15T23:21:38.457Z,98998.00
2023-11-15T23:24:07.692Z,99003.94
2023-11-15T23:26:35.373Z,99006.00
2023-11-15T23:29:02.964Z,99007.59
2023-11-15T23:31:30.622Z,99006.06
2023-11-15T23:33:58.195Z,99016.84
2023-11-15T23:36:25.901Z,99010.78
2023-11-15T23:38:53.795Z,99010.69
2023-11-15T23:41:21.383Z,99016.50
2023-11-15T23:43:50.754Z,99015.88
2023-11-15T23:46:19.117Z,99015.00
2023-11-15T23:48:46.793Z,99019.09
2023-11-15T23:51:14.439Z,99023.09
2023-11-15T23:53:42.121Z,99023.66
2023-11-15T23:56:11.228Z,99021.28
2023-11-15T23:58:38.851Z,99019.81
